sensor_id;sensor_type;location;lat;lon;timestamp;temperature;humidity
68098;DHT22;54886;47.036;15.466;2023-02-11T00:01:34;-3.20;69.50
68098;DHT22;54886;47.036;15.466;2023-02-11T00:04:01;-3.23;69.54
68098;DHT22;54886;47.036;15.466;2023-02-11T00:06:28;-3.22;69.43
68098;DHT22;54886;47.036;15.466;2023-02-11T00:08:54;-3.26;69.25
68098;DHT22;54886;47.036;15.466;2023-02-11T00:11:21;-3.22;69.92
68098;DHT22;54886;47.036;15.466;2023-02-11T00:13:47;-3.30;69.28
68098;DHT22;54886;47.036;15.466;2023-02-11T00:16:15;-3.30;69.93
68098;DHT22;54886;47.036;15.466;2023-02-11T00:18:41;-3.33;69.68
68098;DHT22;54886;47.036;15.466;2023-02-11T00:21:12;-3.40;69.56
68098;DHT22;54886;47.036;15.466;2023-02-11T00:23:38;-3.44;69.63
68098;DHT22;54886;47.036;15.466;2023-02-11T00:26:04;-3.50;69.90
68098;DHT22;54886;47.036;15.466;2023-02-11T00:28:35;-3.51;70.03
68098;DHT22;54886;47.036;15.466;2023-02-11T00:31:00;-3.53;70.08
68098;DHT22;54886;47.036;15.466;2023-02-11T00:33:26;-3.53;70.31
68098;DHT22;54886;47.036;15.466;2023-02-11T00:35:51;-3.51;70.28
68098;DHT22;54886;47.036;15.466;2023-02-11T00:38:17;-3.54;70.33
68098;DHT22;54886;47.036;15.466;2023-02-11T00:40:42;-3.54;70.28
68098;DHT22;54886;47.036;15.466;2023-02-11T00:43:08;-3.54;70.19
68098;DHT22;54886;47.036;15.466;2023-02-11T00:45:33;-3.53;70.30
68098;DHT22;54886;47.036;15.466;2023-02-11T00:47:58;-3.64;70.41
68098;DHT22;54886;47.036;15.466;2023-02-11T00:50:24;-3.64;70.76
68098;DHT22;54886;47.036;15.466;2023-02-11T00:52:50;-3.73;70.53
68098;DHT22;54886;47.036;15.466;2023-02-11T00:55:16;-3.71;70.82
68098;DHT22;54886;47.036;15.466;2023-02-11T00:57:41;-3.71;70.66
68098;DHT22;54886;47.036;15.466;2023-02-11T01:00:08;-3.74;70.72
68098;DHT22;54886;47.036;15.466;2023-02-11T01:02:34;-3.75;70.89
68098;DHT22;54886;47.036;15.466;2023-02-11T01:04:59;-3.78;70.79
68098;DHT22;54886;47.036;15.466;2023-02-11T01:07:26;-3.78;70.81
68098;DHT22;54886;47.036;15.466;2023-02-11T01:09:52;-3.75;70.84
68098;DHT22;54886;47.036;15.466;2023-02-11T01:12:17;-3.79;71.21
68098;DHT22;54886;47.036;15.466;2023-02-11T01:14:42;-3.79;71.17
68098;DHT22;54886;47.036;15.466;2023-02-11T01:17:08;-3.79;71.15
68098;DHT22;54886;47.036;15.466;2023-02-11T01:19:36;-3.79;71.18
68098;DHT22;54886;47.036;15.466;2023-02-11T01:22:01;-3.79;71.17
68098;DHT22;54886;47.036;15.466;2023-02-11T01:24:27;-3.82;71.26
68098;DHT22;54886;47.036;15.466;2023-02-11T01:26:53;-3.78;71.19
68098;DHT22;54886;47.036;15.466;2023-02-11T01:29:18;-3.87;70.80
68098;DHT22;54886;47.036;15.466;2023-02-11T01:31:43;-3.88;71.21
68098;DHT22;54886;47.036;15.466;2023-02-11T01:34:09;-3.85;71.07
68098;DHT22;54886;47.036;15.466;2023-02-11T01:36:34;-3.87;71.26
68098;DHT22;54886;47.036;15.466;2023-02-11T01:39:00;-3.87;71.47
68098;DHT22;54886;47.036;15.466;2023-02-11T01:41:25;-3.88;71.66
68098;DHT22;54886;47.036;15.466;2023-02-11T01:43:50;-3.89;71.45
68098;DHT22;54886;47.036;15.466;2023-02-11T01:46:30;-3.94;71.17
68098;DHT22;54886;47.036;15.466;2023-02-11T01:49:09;-3.95;71.37
68098;DHT22;54886;47.036;15.466;2023-02-11T01:51:40;-3.98;71.56
68098;DHT22;54886;47.036;15.466;2023-02-11T01:54:08;-4.02;71.83
68098;DHT22;54886;47.036;15.466;2023-02-11T01:56:55;-4.02;71.82
68098;DHT22;54886;47.036;15.466;2023-02-11T02:10:41;-4.09;71.94
68098;DHT22;54886;47.036;15.466;2023-02-11T02:13:08;-4.10;71.94
68098;DHT22;54886;47.036;15.466;2023-02-11T02:15:35;-4.12;71.99
68098;DHT22;54886;47.036;15.466;2023-02-11T02:37:23;-4.30;72.02
68098;DHT22;54886;47.036;15.466;2023-02-11T02:39:51;-4.27;72.32
68098;DHT22;54886;47.036;15.466;2023-02-11T02:42:18;-4.30;72.25
68098;DHT22;54886;47.036;15.466;2023-02-11T02:44:49;-4.27;72.32
68098;DHT22;54886;47.036;15.466;2023-02-11T02:47:15;-4.34;72.12
68098;DHT22;54886;47.036;15.466;2023-02-11T02:49:40;-4.30;72.46
68098;DHT22;54886;47.036;15.466;2023-02-11T02:55:06;-4.37;72.41
68098;DHT22;54886;47.036;15.466;2023-02-11T03:04:16;-4.43;72.50
68098;DHT22;54886;47.036;15.466;2023-02-11T03:07:02;-4.49;72.14
68098;DHT22;54886;47.036;15.466;2023-02-11T03:09:37;-4.53;72.33
68098;DHT22;54886;47.036;15.466;2023-02-11T03:12:05;-4.51;72.49
68098;DHT22;54886;47.036;15.466;2023-02-11T03:14:32;-4.53;72.37
68098;DHT22;54886;47.036;15.466;2023-02-11T03:17:02;-4.54;72.40
68098;DHT22;54886;47.036;15.466;2023-02-11T03:19:37;-4.58;72.19
68098;DHT22;54886;47.036;15.466;2023-02-11T03:22:07;-4.62;72.38
68098;DHT22;54886;47.036;15.466;2023-02-11T03:24:36;-4.61;72.52
68098;DHT22;54886;47.036;15.466;2023-02-11T03:27:09;-4.61;72.26
68098;DHT22;54886;47.036;15.466;2023-02-11T03:29:53;-4.64;72.41
68098;DHT22;54886;47.036;15.466;2023-02-11T03:32:33;-4.67;72.51
68098;DHT22;54886;47.036;15.466;2023-02-11T03:35:22;-4.62;72.61
68098;DHT22;54886;47.036;15.466;2023-02-11T03:38:13;-4.68;72.28
68098;DHT22;54886;47.036;15.466;2023-02-11T03:40:38;-4.69;72.49
68098;DHT22;54886;47.036;15.466;2023-02-11T03:43:10;-4.74;72.49
68098;DHT22;54886;47.036;15.466;2023-02-11T03:45:37;-4.72;73.05
68098;DHT22;54886;47.036;15.466;2023-02-11T03:48:07;-4.77;72.79
68098;DHT22;54886;47.036;15.466;2023-02-11T03:50:36;-4.78;72.58
68098;DHT22;54886;47.036;15.466;2023-02-11T03:53:03;-4.79;72.90
68098;DHT22;54886;47.036;15.466;2023-02-11T03:55:32;-4.79;72.61
68098;DHT22;54886;47.036;15.466;2023-02-11T03:57:59;-4.82;72.85
68098;DHT22;54886;47.036;15.466;2023-02-11T04:00:33;-4.81;72.86
68098;DHT22;54886;47.036;15.466;2023-02-11T04:02:58;-4.85;72.52
68098;DHT22;54886;47.036;15.466;2023-02-11T04:05:24;-4.88;72.71
68098;DHT22;54886;47.036;15.466;2023-02-11T04:07:50;-4.87;72.61
68098;DHT22;54886;47.036;15.466;2023-02-11T04:10:15;-4.92;72.70
68098;DHT22;54886;47.036;15.466;2023-02-11T04:12:41;-4.95;72.84
68098;DHT22;54886;47.036;15.466;2023-02-11T04:15:06;-4.95;72.89
68098;DHT22;54886;47.036;15.466;2023-02-11T04:17:32;-4.99;72.96
68098;DHT22;54886;47.036;15.466;2023-02-11T04:19:57;-5.05;73.01
68098;DHT22;54886;47.036;15.466;2023-02-11T04:22:23;-4.99;73.13
68098;DHT22;54886;47.036;15.466;2023-02-11T04:24:48;-4.98;73.24
68098;DHT22;54886;47.036;15.466;2023-02-11T04:27:14;-5.02;73.04
68098;DHT22;54886;47.036;15.466;2023-02-11T04:29:39;-5.09;73.05
68098;DHT22;54886;47.036;15.466;2023-02-11T04:32:05;-5.13;73.14
68098;DHT22;54886;47.036;15.466;2023-02-11T04:34:30;-5.13;73.74
68098;DHT22;54886;47.036;15.466;2023-02-11T04:36:56;-5.10;73.70
68098;DHT22;54886;47.036;15.466;2023-02-11T04:39:21;-5.09;73.68
68098;DHT22;54886;47.036;15.466;2023-02-11T04:41:46;-5.06;73.94
68098;DHT22;54886;47.036;15.466;2023-02-11T04:44:12;-5.05;73.71
68098;DHT22;54886;47.036;15.466;2023-02-11T04:46:37;-5.05;73.66
68098;DHT22;54886;47.036;15.466;2023-02-11T04:49:03;-5.02;73.81
68098;DHT22;54886;47.036;15.466;2023-02-11T04:51:28;-5.07;73.39
68098;DHT22;54886;47.036;15.466;2023-02-11T04:53:54;-5.13;73.95
68098;DHT22;54886;47.036;15.466;2023-02-11T04:56:19;-5.12;73.75
68098;DHT22;54886;47.036;15.466;2023-02-11T04:58:45;-5.16;73.73
68098;DHT22;54886;47.036;15.466;2023-02-11T05:01:13;-5.16;73.79
68098;DHT22;54886;47.036;15.466;2023-02-11T05:03:40;-5.23;73.79
68098;DHT22;54886;47.036;15.466;2023-02-11T05:06:06;-5.23;73.82
68098;DHT22;54886;47.036;15.466;2023-02-11T05:08:31;-5.22;73.65
68098;DHT22;54886;47.036;15.466;2023-02-11T05:10:57;-5.23;73.65
68098;DHT22;54886;47.036;15.466;2023-02-11T05:13:23;-5.24;73.65
68098;DHT22;54886;47.036;15.466;2023-02-11T05:15:49;-5.24;73.65
68098;DHT22;54886;47.036;15.466;2023-02-11T05:18:14;-5.22;73.94
68098;DHT22;54886;47.036;15.466;2023-02-11T05:20:40;-5.22;73.93
68098;DHT22;54886;47.036;15.466;2023-02-11T05:23:06;-5.22;73.80
68098;DHT22;54886;47.036;15.466;2023-02-11T05:25:32;-5.28;73.85
68098;DHT22;54886;47.036;15.466;2023-02-11T05:27:57;-5.33;74.01
68098;DHT22;54886;47.036;15.466;2023-02-11T05:30:23;-5.34;74.18
68098;DHT22;54886;47.036;15.466;2023-02-11T05:32:48;-5.33;74.08
68098;DHT22;54886;47.036;15.466;2023-02-11T05:35:14;-5.33;73.95
68098;DHT22;54886;47.036;15.466;2023-02-11T05:37:39;-5.33;74.18
68098;DHT22;54886;47.036;15.466;2023-02-11T05:40:05;-5.31;74.18
68098;DHT22;54886;47.036;15.466;2023-02-11T05:42:31;-5.28;74.02
68098;DHT22;54886;47.036;15.466;2023-02-11T05:44:56;-5.28;74.34
68098;DHT22;54886;47.036;15.466;2023-02-11T05:47:22;-5.34;74.53
68098;DHT22;54886;47.036;15.466;2023-02-11T05:49:47;-5.37;74.64
68098;DHT22;54886;47.036;15.466;2023-02-11T05:52:12;-5.38;75.03
68098;DHT22;54886;47.036;15.466;2023-02-11T05:54:38;-5.37;74.82
68098;DHT22;54886;47.036;15.466;2023-02-11T05:57:03;-5.37;74.62
68098;DHT22;54886;47.036;15.466;2023-02-11T05:59:29;-5.43;74.48
68098;DHT22;54886;47.036;15.466;2023-02-11T06:01:54;-5.44;74.71
68098;DHT22;54886;47.036;15.466;2023-02-11T06:04:20;-5.43;74.96
68098;DHT22;54886;47.036;15.466;2023-02-11T06:06:46;-5.40;74.48
68098;DHT22;54886;47.036;15.466;2023-02-11T06:09:11;-5.41;74.50
68098;DHT22;54886;47.036;15.466;2023-02-11T06:11:36;-5.40;74.44
68098;DHT22;54886;47.036;15.466;2023-02-11T06:14:02;-5.35;74.69
68098;DHT22;54886;47.036;15.466;2023-02-11T06:16:27;-5.40;74.55
68098;DHT22;54886;47.036;15.466;2023-02-11T06:18:53;-5.37;74.55
68098;DHT22;54886;47.036;15.466;2023-02-11T06:21:18;-5.40;74.60
68098;DHT22;54886;47.036;15.466;2023-02-11T06:23:44;-5.44;75.09
68098;DHT22;54886;47.036;15.466;2023-02-11T06:26:16;-5.47;74.96
68098;DHT22;54886;47.036;15.466;2023-02-11T06:28:42;-5.44;75.16
68098;DHT22;54886;47.036;15.466;2023-02-11T06:31:08;-5.40;75.09
68098;DHT22;54886;47.036;15.466;2023-02-11T06:33:34;-5.38;74.76
68098;DHT22;54886;47.036;15.466;2023-02-11T06:36:00;-5.37;74.72
68098;DHT22;54886;47.036;15.466;2023-02-11T06:38:26;-5.31;74.76
68098;DHT22;54886;47.036;15.466;2023-02-11T06:40:51;-5.30;74.94
68098;DHT22;54886;47.036;15.466;2023-02-11T06:43:17;-5.31;75.11
68098;DHT22;54886;47.036;15.466;2023-02-11T06:45:43;-5.30;75.55
68098;DHT22;54886;47.036;15.466;2023-02-11T06:48:08;-5.27;75.59
68098;DHT22;54886;47.036;15.466;2023-02-11T06:50:34;-5.22;75.40
68098;DHT22;54886;47.036;15.466;2023-02-11T06:52:59;-5.22;75.14
68098;DHT22;54886;47.036;15.466;2023-02-11T06:55:25;-5.16;75.62
68098;DHT22;54886;47.036;15.466;2023-02-11T06:57:51;-5.12;75.58
68098;DHT22;54886;47.036;15.466;2023-02-11T07:00:16;-5.06;75.32
68098;DHT22;54886;47.036;15.466;2023-02-11T07:02:42;-5.05;75.11
68098;DHT22;54886;47.036;15.466;2023-02-11T07:05:08;-4.98;76.81
68098;DHT22;54886;47.036;15.466;2023-02-11T07:07:33;-4.91;75.76
68098;DHT22;54886;47.036;15.466;2023-02-11T07:09:59;-4.84;76.23
68098;DHT22;54886;47.036;15.466;2023-02-11T07:12:24;-4.79;77.83
68098;DHT22;54886;47.036;15.466;2023-02-11T07:14:50;-4.72;77.39
68098;DHT22;54886;47.036;15.466;2023-02-11T07:17:15;-4.67;76.66
68098;DHT22;54886;47.036;15.466;2023-02-11T07:19:40;-4.60;76.18
68098;DHT22;54886;47.036;15.466;2023-02-11T07:22:06;-4.56;76.44
68098;DHT22;54886;47.036;15.466;2023-02-11T07:24:31;-4.54;76.14
68098;DHT22;54886;47.036;15.466;2023-02-11T07:26:57;-4.51;75.93
68098;DHT22;54886;47.036;15.466;2023-02-11T07:29:22;-4.46;75.61
68098;DHT22;54886;47.036;15.466;2023-02-11T07:31:48;-4.43;76.20
68098;DHT22;54886;47.036;15.466;2023-02-11T07:34:13;-4.39;76.01
68098;DHT22;54886;47.036;15.466;2023-02-11T07:36:38;-4.34;76.31
68098;DHT22;54886;47.036;15.466;2023-02-11T07:39:04;-4.33;76.17
68098;DHT22;54886;47.036;15.466;2023-02-11T07:41:29;-4.26;76.34
68098;DHT22;54886;47.036;15.466;2023-02-11T07:43:55;-4.23;75.64
68098;DHT22;54886;47.036;15.466;2023-02-11T07:46:23;-4.17;75.80
68098;DHT22;54886;47.036;15.466;2023-02-11T07:48:49;-4.13;76.85
68098;DHT22;54886;47.036;15.466;2023-02-11T07:51:19;-4.09;75.93
68098;DHT22;54886;47.036;15.466;2023-02-11T07:53:46;-4.07;75.23
68098;DHT22;54886;47.036;15.466;2023-02-11T07:56:14;-4.03;75.54
68098;DHT22;54886;47.036;15.466;2023-02-11T07:58:39;-3.99;75.18
68098;DHT22;54886;47.036;15.466;2023-02-11T08:01:11;-3.95;75.30
68098;DHT22;54886;47.036;15.466;2023-02-11T08:03:37;-3.89;74.83
68098;DHT22;54886;47.036;15.466;2023-02-11T08:06:04;-3.85;75.34
68098;DHT22;54886;47.036;15.466;2023-02-11T08:08:30;-3.82;74.88
68098;DHT22;54886;47.036;15.466;2023-02-11T08:10:56;-3.79;74.21
68098;DHT22;54886;47.036;15.466;2023-02-11T08:13:21;-3.75;74.21
68098;DHT22;54886;47.036;15.466;2023-02-11T08:15:47;-3.71;75.41
68098;DHT22;54886;47.036;15.466;2023-02-11T08:18:12;-3.66;75.29
68098;DHT22;54886;47.036;15.466;2023-02-11T08:20:38;-3.61;74.51
68098;DHT22;54886;47.036;15.466;2023-02-11T08:23:05;-3.60;74.24
68098;DHT22;54886;47.036;15.466;2023-02-11T08:25:31;-3.54;74.62
68098;DHT22;54886;47.036;15.466;2023-02-11T08:27:57;-3.47;75.46
68098;DHT22;54886;47.036;15.466;2023-02-11T08:30:22;-3.43;75.30
68098;DHT22;54886;47.036;15.466;2023-02-11T08:32:48;-3.38;75.44
68098;DHT22;54886;47.036;15.466;2023-02-11T08:35:13;-3.35;75.07
68098;DHT22;54886;47.036;15.466;2023-02-11T08:37:39;-3.26;76.35
68098;DHT22;54886;47.036;15.466;2023-02-11T08:40:04;-3.22;75.95
68098;DHT22;54886;47.036;15.466;2023-02-11T08:42:30;-3.15;75.40
68098;DHT22;54886;47.036;15.466;2023-02-11T08:44:55;-3.05;75.39
68098;DHT22;54886;47.036;15.466;2023-02-11T08:47:21;-3.04;75.49
68098;DHT22;54886;47.036;15.466;2023-02-11T08:49:46;-2.99;74.83
68098;DHT22;54886;47.036;15.466;2023-02-11T08:52:12;-2.98;75.56
68098;DHT22;54886;47.036;15.466;2023-02-11T08:54:37;-2.85;76.11
68098;DHT22;54886;47.036;15.466;2023-02-11T08:57:03;-2.74;76.86
68098;DHT22;54886;47.036;15.466;2023-02-11T08:59:28;-2.70;76.13
68098;DHT22;54886;47.036;15.466;2023-02-11T09:01:54;-2.67;76.45
68098;DHT22;54886;47.036;15.466;2023-02-11T09:04:19;-2.61;75.84
68098;DHT22;54886;47.036;15.466;2023-02-11T09:06:45;-2.54;75.64
68098;DHT22;54886;47.036;15.466;2023-02-11T09:09:12;-2.50;75.46
68098;DHT22;54886;47.036;15.466;2023-02-11T09:11:39;-2.46;75.25
68098;DHT22;54886;47.036;15.466;2023-02-11T09:14:05;-2.42;75.37
68098;DHT22;54886;47.036;15.466;2023-02-11T09:16:34;-2.36;75.16
68098;DHT22;54886;47.036;15.466;2023-02-11T09:19:00;-2.30;75.22
68098;DHT22;54886;47.036;15.466;2023-02-11T09:21:27;-2.22;75.31
68098;DHT22;54886;47.036;15.466;2023-02-11T09:23:53;-2.21;74.93
68098;DHT22;54886;47.036;15.466;2023-02-11T09:26:24;-2.15;75.17
68098;DHT22;54886;47.036;15.466;2023-02-11T09:28:50;-2.11;74.55
68098;DHT22;54886;47.036;15.466;2023-02-11T09:31:19;-1.98;76.05
68098;DHT22;54886;47.036;15.466;2023-02-11T09:33:46;-1.91;75.16
68098;DHT22;54886;47.036;15.466;2023-02-11T09:36:13;-1.78;75.16
68098;DHT22;54886;47.036;15.466;2023-02-11T09:38:39;-1.73;74.80
68098;DHT22;54886;47.036;15.466;2023-02-11T09:41:04;-1.62;74.55
68098;DHT22;54886;47.036;15.466;2023-02-11T09:43:43;-1.52;75.04
68098;DHT22;54886;47.036;15.466;2023-02-11T09:46:14;-1.42;74.07
68098;DHT22;54886;47.036;15.466;2023-02-11T09:48:42;-1.36;73.88
68098;DHT22;54886;47.036;15.466;2023-02-11T09:51:19;-1.27;73.99
68098;DHT22;54886;47.036;15.466;2023-02-11T09:53:50;-1.21;74.00
68098;DHT22;54886;47.036;15.466;2023-02-11T09:56:17;-1.12;74.45
68098;DHT22;54886;47.036;15.466;2023-02-11T09:58:44;-1.09;73.68
68098;DHT22;54886;47.036;15.466;2023-02-11T10:01:46;-1.02;73.69
68098;DHT22;54886;47.036;15.466;2023-02-11T10:06:54;-0.92;73.32
68098;DHT22;54886;47.036;15.466;2023-02-11T10:17:34;-0.53;69.72
68098;DHT22;54886;47.036;15.466;2023-02-11T10:20:20;-0.49;69.95
68098;DHT22;54886;47.036;15.466;2023-02-11T10:22:51;-0.40;70.79
68098;DHT22;54886;47.036;15.466;2023-02-11T10:25:22;-0.36;70.53
68098;DHT22;54886;47.036;15.466;2023-02-11T10:27:48;-0.33;70.36
68098;DHT22;54886;47.036;15.466;2023-02-11T10:30:55;-0.23;70.46
68098;DHT22;54886;47.036;15.466;2023-02-11T10:33:28;-0.22;69.59
68098;DHT22;54886;47.036;15.466;2023-02-11T10:35:57;-0.17;69.29
68098;DHT22;54886;47.036;15.466;2023-02-11T10:38:22;-0.11;69.14
68098;DHT22;54886;47.036;15.466;2023-02-11T10:40:48;-0.07;68.82
68098;DHT22;54886;47.036;15.466;2023-02-11T10:43:16;-0.02;69.14
68098;DHT22;54886;47.036;15.466;2023-02-11T10:45:44;0.00;68.91
68098;DHT22;54886;47.036;15.466;2023-02-11T10:51:23;0.14;68.64
68098;DHT22;54886;47.036;15.466;2023-02-11T10:54:09;0.27;68.09
68098;DHT22;54886;47.036;15.466;2023-02-11T10:56:48;0.33;67.41
68098;DHT22;54886;47.036;15.466;2023-02-11T10:59:32;0.43;66.93
68098;DHT22;54886;47.036;15.466;2023-02-11T11:02:00;0.44;67.38
68098;DHT22;54886;47.036;15.466;2023-02-11T11:04:34;0.55;66.71
68098;DHT22;54886;47.036;15.466;2023-02-11T11:07:22;0.68;66.04
68098;DHT22;54886;47.036;15.466;2023-02-11T11:09:55;0.76;65.81
68098;DHT22;54886;47.036;15.466;2023-02-11T11:12:27;0.91;65.89
68098;DHT22;54886;47.036;15.466;2023-02-11T11:15:01;0.97;65.51
68098;DHT22;54886;47.036;15.466;2023-02-11T11:17:28;1.09;65.26
68098;DHT22;54886;47.036;15.466;2023-02-11T11:22:45;1.27;64.93
68098;DHT22;54886;47.036;15.466;2023-02-11T11:25:24;1.33;65.15
68098;DHT22;54886;47.036;15.466;2023-02-11T11:27:53;1.38;64.28
68098;DHT22;54886;47.036;15.466;2023-02-11T11:30:20;1.41;64.96
68098;DHT22;54886;47.036;15.466;2023-02-11T11:32:47;1.51;64.28
68098;DHT22;54886;47.036;15.466;2023-02-11T11:35:23;1.74;63.57
68098;DHT22;54886;47.036;15.466;2023-02-11T11:38:12;1.69;63.82
68098;DHT22;54886;47.036;15.466;2023-02-11T11:40:38;1.76;62.79
68098;DHT22;54886;47.036;15.466;2023-02-11T11:45:38;1.79;61.81
68098;DHT22;54886;47.036;15.466;2023-02-11T11:51:01;1.74;63.34
68098;DHT22;54886;47.036;15.466;2023-02-11T11:53:30;1.75;62.83
68098;DHT22;54886;47.036;15.466;2023-02-11T11:56:04;1.75;63.11
68098;DHT22;54886;47.036;15.466;2023-02-11T11:58:31;1.89;63.03
68098;DHT22;54886;47.036;15.466;2023-02-11T12:03:55;2.13;62.15
68098;DHT22;54886;47.036;15.466;2023-02-11T12:09:14;2.21;61.85
68098;DHT22;54886;47.036;15.466;2023-02-11T12:23:02;2.72;60.23
68098;DHT22;54886;47.036;15.466;2023-02-11T12:45:18;3.82;55.60
68098;DHT22;54886;47.036;15.466;2023-02-11T12:50:52;4.03;54.86
68098;DHT22;54886;47.036;15.466;2023-02-11T12:56:30;4.14;55.53
68098;DHT22;54886;47.036;15.466;2023-02-11T12:59:00;4.44;53.22
68098;DHT22;54886;47.036;15.466;2023-02-11T13:01:36;4.51;52.83
68098;DHT22;54886;47.036;15.466;2023-02-11T13:04:20;4.44;54.42
68098;DHT22;54886;47.036;15.466;2023-02-11T13:06:52;4.49;53.57
68098;DHT22;54886;47.036;15.466;2023-02-11T13:09:27;4.54;53.33
68098;DHT22;54886;47.036;15.466;2023-02-11T13:11:56;4.58;53.30
68098;DHT22;54886;47.036;15.466;2023-02-11T13:14:32;4.55;52.69
68098;DHT22;54886;47.036;15.466;2023-02-11T13:17:03;4.57;51.91
68098;DHT22;54886;47.036;15.466;2023-02-11T13:19:43;4.64;50.99
68098;DHT22;54886;47.036;15.466;2023-02-11T13:27:58;4.68;49.81
68098;DHT22;54886;47.036;15.466;2023-02-11T13:30:30;4.66;51.30
68098;DHT22;54886;47.036;15.466;2023-02-11T13:38:00;4.77;49.38
68098;DHT22;54886;47.036;15.466;2023-02-11T13:40:37;4.86;49.77
68098;DHT22;54886;47.036;15.466;2023-02-11T13:43:05;4.93;49.30
68098;DHT22;54886;47.036;15.466;2023-02-11T13:48:32;5.07;49.32
68098;DHT22;54886;47.036;15.466;2023-02-11T13:51:03;5.10;48.99
68098;DHT22;54886;47.036;15.466;2023-02-11T13:53:30;5.19;46.81
68098;DHT22;54886;47.036;15.466;2023-02-11T13:58:53;5.35;46.49
68098;DHT22;54886;47.036;15.466;2023-02-11T14:02:00;5.32;45.75
68098;DHT22;54886;47.036;15.466;2023-02-11T14:08:13;5.38;45.62
68098;DHT22;54886;47.036;15.466;2023-02-11T14:13:35;5.44;45.44
68098;DHT22;54886;47.036;15.466;2023-02-11T14:23:52;5.66;45.38
68098;DHT22;54886;47.036;15.466;2023-02-11T14:28:46;5.68;46.60
68098;DHT22;54886;47.036;15.466;2023-02-11T14:31:42;5.69;46.29
68098;DHT22;54886;47.036;15.466;2023-02-11T14:42:22;5.73;47.31
68098;DHT22;54886;47.036;15.466;2023-02-11T14:44:52;5.69;46.59
68098;DHT22;54886;47.036;15.466;2023-02-11T14:47:22;5.68;46.99
68098;DHT22;54886;47.036;15.466;2023-02-11T14:49:50;5.65;46.45
68098;DHT22;54886;47.036;15.466;2023-02-11T14:52:22;5.70;45.22
68098;DHT22;54886;47.036;15.466;2023-02-11T14:54:50;5.69;46.38
68098;DHT22;54886;47.036;15.466;2023-02-11T14:57:18;5.70;45.13
68098;DHT22;54886;47.036;15.466;2023-02-11T14:59:57;5.73;45.74
68098;DHT22;54886;47.036;15.466;2023-02-11T15:02:35;5.73;44.85
68098;DHT22;54886;47.036;15.466;2023-02-11T15:05:36;5.73;44.77
68098;DHT22;54886;47.036;15.466;2023-02-11T15:08:03;5.72;44.73
68098;DHT22;54886;47.036;15.466;2023-02-11T15:10:35;5.75;45.04
68098;DHT22;54886;47.036;15.466;2023-02-11T15:13:03;5.76;45.22
68098;DHT22;54886;47.036;15.466;2023-02-11T15:15:30;5.79;44.86
68098;DHT22;54886;47.036;15.466;2023-02-11T15:17:58;5.80;44.59
68098;DHT22;54886;47.036;15.466;2023-02-11T15:20:26;5.80;45.02
68098;DHT22;54886;47.036;15.466;2023-02-11T15:23:04;5.77;44.38
68098;DHT22;54886;47.036;15.466;2023-02-11T15:25:31;5.79;45.48
68098;DHT22;54886;47.036;15.466;2023-02-11T15:27:57;5.79;45.96
68098;DHT22;54886;47.036;15.466;2023-02-11T15:32:48;5.72;46.38
68098;DHT22;54886;47.036;15.466;2023-02-11T15:35:15;5.69;47.88
68098;DHT22;54886;47.036;15.466;2023-02-11T15:37:42;5.68;47.10
68098;DHT22;54886;47.036;15.466;2023-02-11T15:40:15;5.63;48.14
68098;DHT22;54886;47.036;15.466;2023-02-11T15:43:00;5.62;46.94
68098;DHT22;54886;47.036;15.466;2023-02-11T15:45:32;5.60;47.67
68098;DHT22;54886;47.036;15.466;2023-02-11T15:48:08;5.60;49.24
68098;DHT22;54886;47.036;15.466;2023-02-11T15:50:37;5.58;47.45
68098;DHT22;54886;47.036;15.466;2023-02-11T15:53:28;5.55;48.43
68098;DHT22;54886;47.036;15.466;2023-02-11T15:56:23;5.56;47.15
68098;DHT22;54886;47.036;15.466;2023-02-11T15:58:52;5.54;48.50
68098;DHT22;54886;47.036;15.466;2023-02-11T16:01:27;5.52;49.41
68098;DHT22;54886;47.036;15.466;2023-02-11T16:03:53;5.47;49.07
68098;DHT22;54886;47.036;15.466;2023-02-11T16:06:28;5.45;48.82
68098;DHT22;54886;47.036;15.466;2023-02-11T16:11:36;5.41;50.09
68098;DHT22;54886;47.036;15.466;2023-02-11T16:19:26;5.35;51.68
68098;DHT22;54886;47.036;15.466;2023-02-11T16:21:53;5.32;51.73
68098;DHT22;54886;47.036;15.466;2023-02-11T16:24:23;5.27;51.70
68098;DHT22;54886;47.036;15.466;2023-02-11T16:26:51;5.30;51.40
68098;DHT22;54886;47.036;15.466;2023-02-11T16:29:26;5.23;52.05
68098;DHT22;54886;47.036;15.466;2023-02-11T16:32:04;5.24;51.55
68098;DHT22;54886;47.036;15.466;2023-02-11T16:34:31;5.23;52.47
68098;DHT22;54886;47.036;15.466;2023-02-11T16:36:56;5.19;51.81
68098;DHT22;54886;47.036;15.466;2023-02-11T16:39:21;5.17;51.18
68098;DHT22;54886;47.036;15.466;2023-02-11T16:41:47;5.09;54.46
68098;DHT22;54886;47.036;15.466;2023-02-11T16:44:15;5.06;54.29
68098;DHT22;54886;47.036;15.466;2023-02-11T16:46:41;5.03;54.43
68098;DHT22;54886;47.036;15.466;2023-02-11T16:49:15;4.96;56.86
68098;DHT22;54886;47.036;15.466;2023-02-11T16:51:47;4.93;53.51
68098;DHT22;54886;47.036;15.466;2023-02-11T16:54:13;4.87;54.01
68098;DHT22;54886;47.036;15.466;2023-02-11T16:56:40;4.87;54.96
68098;DHT22;54886;47.036;15.466;2023-02-11T16:59:05;4.80;54.90
68098;DHT22;54886;47.036;15.466;2023-02-11T17:01:31;4.75;53.35
68098;DHT22;54886;47.036;15.466;2023-02-11T17:03:57;4.72;54.27
68098;DHT22;54886;47.036;15.466;2023-02-11T17:06:23;4.66;54.01
68098;DHT22;54886;47.036;15.466;2023-02-11T17:08:48;4.66;54.78
68098;DHT22;54886;47.036;15.466;2023-02-11T17:11:14;4.61;54.93
68098;DHT22;54886;47.036;15.466;2023-02-11T17:13:42;4.52;55.69
68098;DHT22;54886;47.036;15.466;2023-02-11T17:16:18;4.48;55.49
68098;DHT22;54886;47.036;15.466;2023-02-11T17:18:45;4.44;55.02
68098;DHT22;54886;47.036;15.466;2023-02-11T17:21:11;4.40;55.45
68098;DHT22;54886;47.036;15.466;2023-02-11T17:23:37;4.38;54.95
68098;DHT22;54886;47.036;15.466;2023-02-11T17:26:02;4.36;54.91
68098;DHT22;54886;47.036;15.466;2023-02-11T17:28:28;4.36;55.01
68098;DHT22;54886;47.036;15.466;2023-02-11T17:30:53;4.28;54.35
68098;DHT22;54886;47.036;15.466;2023-02-11T17:33:19;4.25;54.93
68098;DHT22;54886;47.036;15.466;2023-02-11T17:35:44;4.27;55.14
68098;DHT22;54886;47.036;15.466;2023-02-11T17:38:10;4.25;55.88
68098;DHT22;54886;47.036;15.466;2023-02-11T17:40:35;4.24;55.58
68098;DHT22;54886;47.036;15.466;2023-02-11T17:43:01;4.22;55.03
68098;DHT22;54886;47.036;15.466;2023-02-11T17:45:26;4.18;55.96
68098;DHT22;54886;47.036;15.466;2023-02-11T17:47:52;4.16;55.66
68098;DHT22;54886;47.036;15.466;2023-02-11T17:50:17;4.16;56.26
68098;DHT22;54886;47.036;15.466;2023-02-11T17:52:43;4.14;56.21
68098;DHT22;54886;47.036;15.466;2023-02-11T17:55:08;4.07;57.20
68098;DHT22;54886;47.036;15.466;2023-02-11T17:57:34;4.00;56.36
68098;DHT22;54886;47.036;15.466;2023-02-11T17:59:59;3.97;56.99
68098;DHT22;54886;47.036;15.466;2023-02-11T18:02:24;3.96;57.03
68098;DHT22;54886;47.036;15.466;2023-02-11T18:04:51;3.90;56.96
68098;DHT22;54886;47.036;15.466;2023-02-11T18:07:17;3.85;57.94
68098;DHT22;54886;47.036;15.466;2023-02-11T18:09:44;3.83;57.08